Time;durP1;ratioP1;P1;durP2;ratioP2;P2;SDS_P1;SDS_P2;PMS_P1;PMS_P2;Temp;Humidity;BMP_temperature;BMP_pressure;BME280_temperature;BME280_humidity;BME280_pressure;Samples;Min_cycle;Max_cycle;Signal;HPM_P1;HPM_P2
2024/01/27 00:01:15;;;;;;;14.75;6.82;;;3.30;99.90;;;;;;4996984;28;20339;-52
2024/01/27 00:03:41;;;;;;;11.75;6.28;;;3.30;99.90;;;;;;4996739;28;20550;-56
2024/01/27 00:06:06;;;;;;;12.75;6.47;;;3.20;99.90;;;;;;4997001;28;20188;-56
2024/01/27 00:08:32;;;;;;;15.00;6.47;;;3.20;99.90;;;;;;4996721;28;20177;-56
2024/01/27 00:10:58;;;;;;;12.52;6.20;;;3.10;99.90;;;;;;4996603;28;20191;-54
2024/01/27 00:13:23;;;;;;;11.80;5.50;;;3.10;99.90;;;;;;4996653;28;20583;-56
2024/01/27 00:15:49;;;;;;;13.98;6.50;;;3.20;99.90;;;;;;4979341;28;20306;-54
2024/01/27 00:18:18;;;;;;;13.35;6.55;;;3.20;99.90;;;;;;4996659;28;20193;-56
2024/01/27 00:20:44;;;;;;;13.63;5.65;;;3.20;99.90;;;;;;4996559;28;20181;-55
2024/01/27 00:23:10;;;;;;;13.68;5.97;;;3.20;99.90;;;;;;4996671;28;20311;-57
2024/01/27 00:25:35;;;;;;;10.80;6.22;;;3.30;99.90;;;;;;4996413;28;20655;-56
2024/01/27 00:28:01;;;;;;;11.82;6.20;;;3.20;99.90;;;;;;4996462;28;20613;-55
2024/01/27 00:30:26;;;;;;;14.38;6.32;;;3.20;99.90;;;;;;4996485;28;20212;-56
2024/01/27 00:32:52;;;;;;;11.57;5.32;;;3.20;99.90;;;;;;4996442;28;20264;-56
2024/01/27 00:35:18;;;;;;;10.93;6.63;;;3.10;99.90;;;;;;4996288;28;20184;-54
2024/01/27 00:37:43;;;;;;;11.48;5.97;;;3.10;99.90;;;;;;4996187;28;20181;-56
2024/01/27 00:40:10;;;;;;;14.80;6.13;;;3.10;99.90;;;;;;4996125;28;20235;-56
2024/01/27 00:42:37;;;;;;;16.65;5.97;;;3.00;99.90;;;;;;4996009;28;20184;-56
2024/01/27 00:45:04;;;;;;;15.95;6.43;;;3.00;99.90;;;;;;4996197;28;20256;-56
2024/01/27 00:47:30;;;;;;;14.20;6.30;;;3.10;99.90;;;;;;4996078;28;20302;-55
2024/01/27 00:49:56;;;;;;;10.68;5.45;;;3.00;99.90;;;;;;4996317;28;20637;-55
2024/01/27 00:52:22;;;;;;;11.27;5.95;;;3.00;99.90;;;;;;4995115;28;20209;-56
2024/01/27 00:54:47;;;;;;;14.20;6.18;;;3.10;99.90;;;;;;4995896;28;20729;-55
2024/01/27 00:57:13;;;;;;;13.70;6.22;;;3.00;99.90;;;;;;4995829;28;20527;-56
2024/01/27 00:59:39;;;;;;;14.70;6.53;;;3.00;99.90;;;;;;4996001;28;20638;-55
2024/01/27 01:02:05;;;;;;;14.48;7.47;;;3.00;99.90;;;;;;4995861;28;20236;-56
2024/01/27 01:04:30;;;;;;;12.82;5.55;;;3.10;99.90;;;;;;4995834;28;20200;-57
2024/01/27 01:06:56;;;;;;;9.35;5.93;;;3.00;99.90;;;;;;4995632;28;20617;-55
2024/01/27 01:09:22;;;;;;;9.52;5.35;;;2.90;99.90;;;;;;4995578;28;20267;-55
2024/01/27 01:11:47;;;;;;;11.75;5.85;;;3.00;99.90;;;;;;4995535;28;20184;-56
2024/01/27 01:14:13;;;;;;;10.60;5.53;;;2.80;99.90;;;;;;4994783;28;20182;-56
2024/01/27 01:16:40;;;;;;;12.57;5.65;;;2.80;99.90;;;;;;4995516;28;20193;-55
2024/01/27 01:19:06;;;;;;;12.73;5.35;;;2.80;99.90;;;;;;4995489;28;20173;-57
2024/01/27 01:21:32;;;;;;;12.02;6.07;;;2.80;99.90;;;;;;4995373;28;20188;-55
2024/01/27 01:23:58;;;;;;;12.30;5.88;;;2.70;99.90;;;;;;4995354;28;20181;-56
2024/01/27 01:26:27;;;;;;;14.83;5.63;;;2.70;99.90;;;;;;4995079;28;20267;-57
2024/01/27 01:28:52;;;;;;;15.63;5.65;;;2.70;99.90;;;;;;4995633;28;20184;-54
2024/01/27 01:31:18;;;;;;;13.77;6.05;;;2.80;99.90;;;;;;4995530;28;20191;-57
2024/01/27 01:33:44;;;;;;;12.82;5.13;;;2.70;99.90;;;;;;4995186;28;20212;-55
2024/01/27 01:36:10;;;;;;;15.82;6.78;;;2.60;99.90;;;;;;4995105;28;20181;-56
2024/01/27 01:38:35;;;;;;;11.10;5.25;;;2.60;99.90;;;;;;4995087;28;20558;-55
2024/01/27 01:41:01;;;;;;;11.43;5.57;;;2.70;99.90;;;;;;4994924;28;20685;-55
2024/01/27 01:43:27;;;;;;;17.50;6.32;;;2.60;99.90;;;;;;4994929;28;20200;-55
2024/01/27 01:45:56;;;;;;;11.65;5.40;;;2.60;99.90;;;;;;4994849;28;20188;-55
2024/01/27 01:48:21;;;;;;;12.00;6.10;;;2.60;99.90;;;;;;4995155;28;20311;-56
2024/01/27 01:50:48;;;;;;;11.63;5.63;;;2.60;99.90;;;;;;4995014;28;20666;-56
2024/01/27 01:53:14;;;;;;;13.23;6.13;;;2.60;99.90;;;;;;4994735;28;20231;-56
2024/01/27 01:55:40;;;;;;;9.13;5.38;;;2.60;99.90;;;;;;4994690;28;20590;-56
2024/01/27 01:58:06;;;;;;;14.18;6.32;;;2.60;99.90;;;;;;4994857;28;20184;-55
2024/01/27 02:00:32;;;;;;;15.95;5.90;;;2.60;99.90;;;;;;4994521;28;20623;-55
2024/01/27 02:02:58;;;;;;;11.63;5.78;;;2.60;99.90;;;;;;4994807;28;20177;-57
2024/01/27 02:05:24;;;;;;;12.05;5.72;;;2.60;99.90;;;;;;4994499;28;20214;-55
2024/01/27 02:07:50;;;;;;;11.20;6.40;;;2.50;99.90;;;;;;4994621;28;20674;-55
2024/01/27 02:10:17;;;;;;;11.32;5.90;;;2.50;99.90;;;;;;4994362;28;20267;-56
2024/01/27 02:12:44;;;;;;;11.73;5.90;;;2.50;99.90;;;;;;4994523;28;20181;-55
2024/01/27 02:15:13;;;;;;;13.07;5.93;;;2.60;99.90;;;;;;4994564;28;20200;-56
2024/01/27 02:17:40;;;;;;;14.95;6.43;;;2.60;99.90;;;;;;4994476;28;20204;-57
2024/01/27 02:20:07;;;;;;;17.90;6.15;;;2.50;99.90;;;;;;4994374;28;20279;-55
2024/01/27 02:22:34;;;;;;;16.95;6.68;;;2.40;99.90;;;;;;4994214;28;20177;-56
2024/01/27 02:24:59;;;;;;;14.70;6.53;;;2.50;99.90;;;;;;4994448;28;20212;-56
2024/01/27 02:27:25;;;;;;;13.50;6.43;;;2.60;99.90;;;;;;4994446;28;20302;-55
2024/01/27 02:29:51;;;;;;;10.82;6.38;;;2.60;99.90;;;;;;4994290;28;20192;-54
2024/01/27 02:32:16;;;;;;;14.65;6.40;;;2.60;99.90;;;;;;4994219;28;20183;-55
2024/01/27 02:34:42;;;;;;;11.93;6.18;;;2.60;99.90;;;;;;4993990;28;20328;-56
2024/01/27 02:37:09;;;;;;;10.52;5.85;;;2.50;99.90;;;;;;4994007;28;20206;-52
2024/01/27 02:39:34;;;;;;;12.02;5.82;;;2.50;99.90;;;;;;4993951;28;20181;-55
2024/01/27 02:42:00;;;;;;;10.33;5.93;;;2.50;99.90;;;;;;4994145;28;20598;-55
2024/01/27 02:44:26;;;;;;;17.37;7.03;;;2.60;99.90;;;;;;4994227;28;20199;-56
2024/01/27 02:46:51;;;;;;;11.60;6.00;;;2.50;99.90;;;;;;4993985;28;20209;-56
2024/01/27 02:49:17;;;;;;;13.43;6.53;;;2.40;99.90;;;;;;4994266;28;20622;-54
2024/01/27 02:51:43;;;;;;;12.73;7.20;;;2.40;99.90;;;;;;4993952;28;20218;-56
2024/01/27 02:54:09;;;;;;;14.85;6.50;;;2.40;99.90;;;;;;4993741;28;20192;-56
2024/01/27 02:56:35;;;;;;;13.23;6.40;;;2.50;99.90;;;;;;4993980;28;20550;-55
2024/01/27 02:59:01;;;;;;;15.57;6.88;;;2.40;99.90;;;;;;4993935;28;20174;-57
2024/01/27 03:01:26;;;;;;;14.33;6.50;;;2.40;99.90;;;;;;4993686;28;20235;-55
2024/01/27 03:03:52;;;;;;;10.37;6.67;;;2.40;99.90;;;;;;4993961;28;20184;-56
2024/01/27 03:06:18;;;;;;;11.33;6.10;;;2.40;99.90;;;;;;4993738;28;20593;-55
2024/01/27 03:08:43;;;;;;;12.23;7.00;;;2.30;99.90;;;;;;4993627;28;20720;-56
2024/01/27 03:11:09;;;;;;;17.03;7.73;;;2.40;99.90;;;;;;4993680;28;20186;-56
2024/01/27 03:13:35;;;;;;;15.57;7.10;;;2.50;99.90;;;;;;4993807;28;20532;-55
2024/01/27 03:16:00;;;;;;;13.00;6.50;;;2.40;99.90;;;;;;4982244;28;20180;-55
2024/01/27 03:18:26;;;;;;;17.07;6.80;;;2.30;99.90;;;;;;4978259;28;20189;-57
2024/01/27 03:20:52;;;;;;;14.15;7.07;;;2.20;99.90;;;;;;4978140;28;20181;-56
2024/01/27 03:23:17;;;;;;;14.73;6.78;;;2.20;99.90;;;;;;4978070;28;20182;-56
2024/01/27 03:25:43;;;;;;;16.40;7.10;;;2.20;99.90;;;;;;4978307;28;20640;-56
2024/01/27 03:28:09;;;;;;;9.87;6.47;;;2.20;99.90;;;;;;4978098;28;20574;-55
2024/01/27 03:30:34;;;;;;;18.77;6.50;;;2.10;99.90;;;;;;4977948;28;20236;-55
2024/01/27 03:33:00;;;;;;;11.13;5.97;;;2.00;99.90;;;;;;4977870;28;20270;-56
2024/01/27 03:35:26;;;;;;;14.03;6.87;;;2.10;99.90;;;;;;4977924;28;20173;-55
2024/01/27 03:37:52;;;;;;;13.50;6.87;;;2.00;99.90;;;;;;4977824;28;20276;-57
2024/01/27 03:40:18;;;;;;;17.80;6.37;;;2.00;99.90;;;;;;4978016;28;20592;-57
2024/01/27 03:42:44;;;;;;;12.27;6.80;;;1.90;99.90;;;;;;4977990;28;20185;-55
2024/01/27 03:45:09;;;;;;;14.00;6.53;;;1.90;99.90;;;;;;4977723;28;20563;-56
2024/01/27 03:47:35;;;;;;;14.37;6.80;;;1.90;99.90;;;;;;4977635;28;20564;-55
2024/01/27 03:50:01;;;;;;;12.70;6.73;;;1.90;99.90;;;;;;4977798;28;20225;-54
2024/01/27 03:52:26;;;;;;;10.60;6.40;;;1.90;99.90;;;;;;4977725;28;20185;-57
2024/01/27 03:54:52;;;;;;;12.10;6.83;;;2.00;99.90;;;;;;4977714;28;20225;-57
2024/01/27 03:57:17;;;;;;;14.10;7.37;;;1.90;99.90;;;;;;4977615;28;20189;-55
2024/01/27 03:59:43;;;;;;;13.93;7.33;;;1.90;99.90;;;;;;4977579;28;20184;-56
2024/01/27 04:02:09;;;;;;;17.63;7.57;;;2.00;99.90;;;;;;4992856;28;20232;-55
2024/01/27 04:04:34;;;;;;;18.90;7.25;;;1.90;99.90;;;;;;4996794;28;20257;-56
2024/01/27 04:07:01;;;;;;;14.07;7.83;;;1.90;99.90;;;;;;4996622;28;20250;-55
2024/01/27 04:09:27;;;;;;;11.20;6.40;;;1.90;99.90;;;;;;4996822;28;20738;-56
2024/01/27 04:11:53;;;;;;;13.10;7.13;;;1.90;99.90;;;;;;4996798;28;20199;-55
2024/01/27 04:14:19;;;;;;;13.07;7.10;;;1.80;99.90;;;;;;4996773;28;20176;-54
2024/01/27 04:16:44;;;;;;;12.80;6.73;;;1.80;99.90;;;;;;4996865;28;20716;-56
2024/01/27 04:19:10;;;;;;;13.57;7.30;;;1.80;99.90;;;;;;4996503;28;20185;-56
2024/01/27 04:21:36;;;;;;;12.07;7.20;;;1.80;99.90;;;;;;4996513;28;20189;-56
2024/01/27 04:24:02;;;;;;;17.17;7.87;;;1.70;99.90;;;;;;4996636;28;20207;-55
2024/01/27 04:26:28;;;;;;;12.13;6.70;;;1.70;99.90;;;;;;4996227;28;20185;-55
2024/01/27 04:28:53;;;;;;;16.10;7.67;;;1.60;99.90;;;;;;4995254;28;20255;-55
2024/01/27 04:31:19;;;;;;;14.83;7.70;;;1.60;99.90;;;;;;4996266;28;20185;-54
2024/01/27 04:33:45;;;;;;;18.10;7.57;;;1.70;99.90;;;;;;4996311;28;20182;-56
2024/01/27 04:36:11;;;;;;;11.33;7.70;;;1.70;99.90;;;;;;4996095;28;20184;-57
2024/01/27 04:38:37;;;;;;;14.93;7.53;;;1.70;99.90;;;;;;4996330;28;20188;-57
2024/01/27 04:41:03;;;;;;;14.70;7.63;;;1.80;99.90;;;;;;4996110;28;20176;-52
2024/01/27 04:43:28;;;;;;;17.80;8.63;;;1.70;99.90;;;;;;4996352;28;20187;-55
2024/01/27 04:45:54;;;;;;;16.73;8.33;;;1.80;99.90;;;;;;4996056;28;20655;-56
2024/01/27 04:48:20;;;;;;;17.40;8.33;;;1.80;99.90;;;;;;4995983;28;20694;-56
2024/01/27 04:50:46;;;;;;;14.17;7.90;;;1.80;99.90;;;;;;4995952;28;20605;-56
2024/01/27 04:53:12;;;;;;;17.83;8.40;;;1.80;99.90;;;;;;4996076;28;20209;-57
2024/01/27 04:55:38;;;;;;;16.00;8.37;;;1.80;99.90;;;;;;4996146;28;20212;-55
2024/01/27 04:58:04;;;;;;;14.83;8.17;;;1.80;99.90;;;;;;4995945;28;20534;-56
2024/01/27 05:00:30;;;;;;;16.37;7.87;;;1.80;99.90;;;;;;4995533;28;20188;-56
2024/01/27 05:02:58;;;;;;;19.03;8.20;;;1.70;99.90;;;;;;4995668;28;20260;-56
2024/01/27 05:05:24;;;;;;;13.57;8.30;;;1.70;99.90;;;;;;4995549;28;20207;-56
2024/01/27 05:07:51;;;;;;;14.40;7.77;;;1.70;99.90;;;;;;4995626;28;20236;-57
2024/01/27 05:10:17;;;;;;;14.63;8.07;;;1.70;99.90;;;;;;4995844;28;20577;-55
2024/01/27 05:12:42;;;;;;;14.57;7.87;;;1.60;99.90;;;;;;4995731;28;20645;-55
2024/01/27 05:15:10;;;;;;;14.87;8.30;;;1.60;99.90;;;;;;4995512;28;20264;-55
2024/01/27 05:17:36;;;;;;;17.07;8.63;;;1.50;99.90;;;;;;4995474;28;20181;-56
2024/01/27 05:20:04;;;;;;;17.53;7.40;;;1.40;99.90;;;;;;4995346;28;20236;-55
2024/01/27 05:22:30;;;;;;;17.77;8.80;;;1.50;99.90;;;;;;4995476;28;20209;-55
2024/01/27 05:24:55;;;;;;;15.40;7.80;;;1.50;99.90;;;;;;4995496;28;20211;-55
2024/01/27 05:27:21;;;;;;;14.37;7.53;;;1.60;99.90;;;;;;4995286;28;20237;-54
2024/01/27 05:29:47;;;;;;;11.10;7.83;;;1.60;99.90;;;;;;4995463;28;20216;-54
2024/01/27 05:32:12;;;;;;;22.70;8.63;;;1.50;99.90;;;;;;4995208;28;20668;-56
2024/01/27 05:34:38;;;;;;;17.57;8.00;;;1.50;99.90;;;;;;4994994;28;20181;-56
2024/01/27 05:37:04;;;;;;;23.17;9.65;;;1.50;99.90;;;;;;4995196;28;20637;-54
2024/01/27 05:39:29;;;;;;;15.67;8.30;;;1.60;99.90;;;;;;4994776;28;20184;-54
2024/01/27 05:41:55;;;;;;;16.40;7.93;;;1.60;99.90;;;;;;4995063;28;20185;-55
2024/01/27 05:44:21;;;;;;;16.23;9.00;;;1.60;99.90;;;;;;4994969;28;20181;-54
2024/01/27 05:46:46;;;;;;;14.37;8.87;;;1.60;99.90;;;;;;4994835;28;20217;-56
2024/01/27 05:49:12;;;;;;;15.77;8.97;;;1.60;99.90;;;;;;4994720;28;20261;-55
2024/01/27 05:51:38;;;;;;;15.53;8.77;;;1.60;99.90;;;;;;4994698;28;20191;-56
2024/01/27 05:54:04;;;;;;;14.27;8.33;;;1.70;99.90;;;;;;4994907;28;20181;-57
2024/01/27 05:56:29;;;;;;;18.63;9.07;;;1.60;99.90;;;;;;4994660;28;20180;-56
2024/01/27 05:58:55;;;;;;;14.17;8.10;;;1.70;99.90;;;;;;4994755;28;20181;-53
2024/01/27 06:01:21;;;;;;;18.23;9.30;;;1.60;99.90;;;;;;4994595;28;20236;-55
2024/01/27 06:03:47;;;;;;;17.50;9.03;;;1.70;99.90;;;;;;4994539;28;20189;-58
2024/01/27 06:06:12;;;;;;;19.67;9.83;;;1.80;99.90;;;;;;4994789;28;20642;-58
2024/01/27 06:08:38;;;;;;;14.63;9.17;;;1.80;99.90;;;;;;4994592;28;20682;-59
2024/01/27 06:11:04;;;;;;;19.73;9.30;;;1.90;99.90;;;;;;4994338;28;20239;-59
2024/01/27 06:13:30;;;;;;;17.33;9.07;;;1.80;99.90;;;;;;4994446;28;20197;-58
2024/01/27 06:15:56;;;;;;;16.07;9.30;;;1.80;99.90;;;;;;4994446;28;20189;-57
2024/01/27 06:18:21;;;;;;;16.27;9.17;;;1.80;99.90;;;;;;4994325;28;20592;-58
2024/01/27 06:20:47;;;;;;;13.40;9.20;;;1.80;99.90;;;;;;4994412;28;20193;-59
2024/01/27 06:23:13;;;;;;;17.98;8.98;;;1.80;99.90;;;;;;4994407;28;20178;-58
2024/01/27 06:25:38;;;;;;;17.50;9.57;;;1.80;99.90;;;;;;4994413;28;20185;-59
2024/01/27 06:28:04;;;;;;;15.60;8.90;;;1.90;99.90;;;;;;4994223;28;20569;-58
2024/01/27 06:30:30;;;;;;;12.70;9.13;;;1.90;99.90;;;;;;4994183;28;20638;-53
2024/01/27 06:32:55;;;;;;;13.27;8.90;;;1.90;99.90;;;;;;4994016;28;20188;-52
2024/01/27 06:35:21;;;;;;;15.27;8.83;;;2.00;99.90;;;;;;4994302;28;20184;-51
2024/01/27 06:37:47;;;;;;;14.93;8.73;;;1.90;99.90;;;;;;4994226;28;20185;-54
2024/01/27 06:40:13;;;;;;;15.20;8.37;;;1.80;99.90;;;;;;4993890;28;20182;-53
2024/01/27 06:42:39;;;;;;;14.87;8.57;;;1.70;99.90;;;;;;4980633;28;20202;-51
2024/01/27 06:45:05;;;;;;;22.37;9.43;;;1.70;99.90;;;;;;4964320;28;20280;-53
2024/01/27 06:47:31;;;;;;;14.53;9.13;;;1.70;99.90;;;;;;4963471;28;20277;-53
2024/01/27 06:49:56;;;;;;;15.37;8.93;;;1.70;99.90;;;;;;4964936;28;20175;-50
2024/01/27 06:52:22;;;;;;;16.40;8.90;;;1.70;99.90;;;;;;4963649;28;20186;-53
2024/01/27 06:54:48;;;;;;;16.37;9.07;;;1.70;99.90;;;;;;4963991;28;20181;-48
2024/01/27 06:57:21;;;;;;;15.30;8.13;;;1.80;99.90;;;;;;4965179;28;20197;-53
2024/01/27 06:59:52;;;;;;;18.87;8.80;;;1.70;99.90;;;;;;4955055;29;20233;-50
2024/01/27 07:02:27;;;;;;;14.53;8.63;;;1.60;99.90;;;;;;4955221;29;20238;-53
2024/01/27 07:04:53;;;;;;;14.03;8.10;;;1.70;99.90;;;;;;4954976;29;20257;-50
2024/01/27 07:07:23;;;;;;;13.00;7.90;;;1.70;99.90;;;;;;4955014;29;20289;-54
2024/01/27 07:09:49;;;;;;;15.43;8.43;;;1.70;99.90;;;;;;4955162;29;20193;-51
2024/01/27 07:12:15;;;;;;;16.27;7.90;;;1.70;99.90;;;;;;4954925;29;20179;-52
2024/01/27 07:14:41;;;;;;;16.33;8.43;;;1.70;99.90;;;;;;4954879;29;20182;-49
2024/01/27 07:17:06;;;;;;;17.47;8.17;;;1.70;99.90;;;;;;4955096;29;20647;-49
2024/01/27 07:19:32;;;;;;;14.60;8.37;;;1.70;99.90;;;;;;4954920;29;20190;-54
2024/01/27 07:21:59;;;;;;;17.43;8.63;;;1.70;99.90;;;;;;4954994;29;20268;-51
2024/01/27 07:24:26;;;;;;;12.33;8.10;;;1.70;99.90;;;;;;4954819;29;20186;-54
2024/01/27 07:26:51;;;;;;;16.63;8.90;;;1.70;99.90;;;;;;4954763;29;20209;-54
2024/01/27 07:29:17;;;;;;;12.60;7.83;;;1.70;99.90;;;;;;4954696;29;20179;-53
2024/01/27 07:31:43;;;;;;;21.17;8.57;;;1.70;99.90;;;;;;4954907;29;20182;-54
2024/01/27 07:34:08;;;;;;;15.20;7.77;;;1.70;99.90;;;;;;4969197;28;20210;-52
2024/01/27 07:36:34;;;;;;;15.27;8.77;;;1.80;99.90;;;;;;4989475;28;20184;-54
2024/01/27 07:39:00;;;;;;;17.57;8.80;;;1.80;99.90;;;;;;4974035;28;20283;-51
2024/01/27 07:41:25;;;;;;;12.50;7.90;;;1.90;99.90;;;;;;4972272;28;20193;-52
2024/01/27 07:43:51;;;;;;;16.90;8.07;;;2.00;99.90;;;;;;4972664;28;20290;-55
2024/01/27 07:46:21;;;;;;;14.97;8.33;;;2.00;99.90;;;;;;4973356;28;20186;-53
2024/01/27 07:48:48;;;;;;;15.97;8.63;;;2.10;99.90;;;;;;4973924;28;20221;-54
2024/01/27 07:51:16;;;;;;;17.53;9.63;;;2.10;99.90;;;;;;4972020;28;20294;-54
2024/01/27 07:53:41;;;;;;;20.65;9.82;;;2.10;99.90;;;;;;4972577;28;20190;-53
2024/01/27 07:56:08;;;;;;;16.67;8.97;;;2.10;99.90;;;;;;4973583;28;20198;-54
2024/01/27 07:58:33;;;;;;;14.63;8.27;;;2.20;99.90;;;;;;4972076;28;20197;-55
2024/01/27 08:01:00;;;;;;;16.00;8.90;;;2.20;99.90;;;;;;4986940;28;20306;-53
2024/01/27 08:03:25;;;;;;;16.57;8.57;;;2.30;99.90;;;;;;4981996;28;20232;-52
2024/01/27 08:05:51;;;;;;;18.80;8.73;;;2.30;99.90;;;;;;4985774;28;20186;-52
2024/01/27 08:08:17;;;;;;;20.77;9.07;;;2.20;99.90;;;;;;4996382;28;20224;-54
2024/01/27 08:10:43;;;;;;;15.77;8.70;;;2.30;99.90;;;;;;4996526;28;20190;-49
2024/01/27 08:13:08;;;;;;;14.07;8.10;;;2.20;99.90;;;;;;4996309;28;20193;-53
2024/01/27 08:15:34;;;;;;;15.13;9.10;;;2.20;99.90;;;;;;4996543;28;20181;-53
2024/01/27 08:17:59;;;;;;;17.05;7.93;;;2.20;99.90;;;;;;4995869;28;20263;-51
2024/01/27 08:20:25;;;;;;;18.10;7.93;;;2.20;99.90;;;;;;4984107;28;20189;-52
2024/01/27 08:22:51;;;;;;;14.03;8.67;;;2.20;99.90;;;;;;4976924;28;20188;-49
2024/01/27 08:25:17;;;;;;;17.03;8.67;;;2.20;99.90;;;;;;4976666;28;20189;-51
2024/01/27 08:27:43;;;;;;;15.53;8.23;;;2.30;99.90;;;;;;4976564;28;20284;-53
2024/01/27 08:30:10;;;;;;;17.13;9.27;;;2.30;99.90;;;;;;4976900;28;20256;-50
2024/01/27 08:32:35;;;;;;;15.47;9.57;;;2.40;99.90;;;;;;4976772;28;20232;-53
2024/01/27 08:35:01;;;;;;;17.38;9.48;;;2.50;99.90;;;;;;4976744;28;20186;-52
2024/01/27 08:37:27;;;;;;;17.55;8.75;;;2.40;99.90;;;;;;4976548;28;20178;-52
2024/01/27 08:39:53;;;;;;;22.73;9.98;;;2.50;99.90;;;;;;4975155;28;20201;-52
2024/01/27 08:42:19;;;;;;;18.90;8.80;;;2.60;99.90;;;;;;4976229;28;20193;-53
2024/01/27 08:44:44;;;;;;;14.98;8.52;;;2.60;99.90;;;;;;4976773;28;20189;-49
2024/01/27 08:47:10;;;;;;;17.00;8.27;;;2.60;99.90;;;;;;4976659;28;20224;-53
2024/01/27 08:49:36;;;;;;;17.90;8.40;;;2.60;99.90;;;;;;4976632;28;20177;-53
2024/01/27 08:52:02;;;;;;;14.57;8.93;;;2.80;99.90;;;;;;4976638;28;20187;-50
2024/01/27 08:54:27;;;;;;;12.43;8.10;;;2.70;99.90;;;;;;4976482;28;20703;-54
2024/01/27 08:56:53;;;;;;;17.15;8.68;;;2.70;99.90;;;;;;4976439;28;20653;-53
2024/01/27 08:59:18;;;;;;;20.87;8.43;;;2.80;99.90;;;;;;4976543;28;20190;-53
2024/01/27 09:01:44;;;;;;;16.90;7.97;;;2.80;99.90;;;;;;4976426;28;20236;-50
2024/01/27 09:04:10;;;;;;;16.97;7.80;;;2.90;99.90;;;;;;4976332;28;20193;-52
2024/01/27 09:06:36;;;;;;;17.58;8.30;;;3.00;99.90;;;;;;4976316;28;20192;-51
2024/01/27 09:09:02;;;;;;;14.27;7.97;;;3.00;99.90;;;;;;4976291;28;20191;-53
2024/01/27 09:11:30;;;;;;;14.70;8.25;;;3.10;99.90;;;;;;4976028;28;20189;-53
2024/01/27 09:13:56;;;;;;;14.70;7.70;;;3.20;99.90;;;;;;4975212;28;20575;-53
2024/01/27 09:16:22;;;;;;;16.83;8.87;;;3.30;99.90;;;;;;4976044;28;20185;-49
2024/01/27 09:18:50;;;;;;;17.13;8.40;;;3.30;99.90;;;;;;4976010;28;20229;-49
2024/01/27 09:21:20;;;;;;;19.00;8.02;;;3.40;99.90;;;;;;4975838;28;20181;-49
2024/01/27 09:23:47;;;;;;;18.02;7.82;;;3.50;99.90;;;;;;4975931;28;20196;-52
2024/01/27 09:26:13;;;;;;;10.95;7.45;;;3.60;99.90;;;;;;4975653;28;20272;-53
2024/01/27 09:28:43;;;;;;;16.20;7.82;;;3.70;99.90;;;;;;4975787;28;20227;-51
2024/01/27 09:31:10;;;;;;;15.45;7.57;;;3.80;99.90;;;;;;4975966;28;20189;-51
2024/01/27 09:33:36;;;;;;;17.38;7.95;;;3.90;99.90;;;;;;4975587;28;20196;-50
2024/01/27 09:36:02;;;;;;;20.73;9.30;;;4.00;99.90;;;;;;4975580;28;20601;-51
2024/01/27 09:38:28;;;;;;;16.00;8.05;;;4.00;99.90;;;;;;4975605;28;20685;-49
2024/01/27 09:40:54;;;;;;;16.42;8.38;;;4.10;99.90;;;;;;4975406;28;20205;-52
2024/01/27 09:43:21;;;;;;;14.68;7.68;;;4.10;99.90;;;;;;4975601;28;20181;-49
2024/01/27 09:45:47;;;;;;;14.82;7.65;;;4.20;99.90;;;;;;4975569;28;20182;-53
2024/01/27 09:48:13;;;;;;;18.30;8.35;;;4.40;99.90;;;;;;4975342;28;20266;-55
2024/01/27 09:50:41;;;;;;;18.20;7.90;;;4.60;99.90;;;;;;4975432;28;20177;-56
2024/01/27 09:53:08;;;;;;;16.83;8.57;;;4.60;99.90;;;;;;4957783;28;20657;-52
2024/01/27 09:55:35;;;;;;;18.63;8.35;;;4.70;99.90;;;;;;4975430;28;20185;-51
2024/01/27 09:58:01;;;;;;;19.30;7.85;;;4.80;99.90;;;;;;4975381;28;20267;-49
2024/01/27 10:00:27;;;;;;;16.40;8.13;;;4.90;99.90;;;;;;4975270;28;20192;-53
2024/01/27 10:02:56;;;;;;;16.30;8.25;;;4.90;99.90;;;;;;4975188;28;20177;-53
2024/01/27 10:05:23;;;;;;;16.15;7.95;;;5.00;99.90;;;;;;4975167;28;20173;-52
2024/01/27 10:07:49;;;;;;;17.67;8.07;;;5.10;99.90;;;;;;4974607;28;20244;-53
2024/01/27 10:10:15;;;;;;;14.70;8.25;;;5.10;99.90;;;;;;4975200;28;20271;-49
2024/01/27 10:12:42;;;;;;;17.58;7.72;;;5.20;99.90;;;;;;4975288;28;20193;-52
2024/01/27 10:15:22;;;;;;;15.65;7.30;;;5.30;99.90;;;;;;4974972;28;20184;-54
2024/01/27 10:17:47;;;;;;;17.63;7.70;;;5.50;99.90;;;;;;4974917;28;20239;-52
2024/01/27 10:20:15;;;;;;;17.88;7.53;;;5.60;99.90;;;;;;4974803;28;20181;-54
2024/01/27 10:22:43;;;;;;;20.48;7.45;;;5.60;99.90;;;;;;4974602;28;20630;-53
2024/01/27 10:25:11;;;;;;;13.77;7.30;;;5.60;99.90;;;;;;4974836;28;20590;-50
2024/01/27 10:27:38;;;;;;;15.63;7.03;;;5.60;99.90;;;;;;4974775;28;20248;-52
2024/01/27 10:30:04;;;;;;;15.48;7.82;;;5.70;99.90;;;;;;4974778;28;20185;-52
2024/01/27 10:32:30;;;;;;;16.27;7.70;;;5.70;99.90;;;;;;4974623;28;20192;-53
2024/01/27 10:35:10;;;;;;;19.33;7.25;;;5.70;99.90;;;;;;4974532;28;20180;-52
2024/01/27 10:37:39;;;;;;;17.33;6.63;;;5.60;99.90;;;;;;4974767;28;20176;-52
2024/01/27 10:40:10;;;;;;;16.58;7.20;;;5.60;99.90;;;;;;4974618;28;20189;-49
2024/01/27 10:42:37;;;;;;;19.10;6.82;;;5.50;99.90;;;;;;4974598;28;20180;-53
2024/01/27 10:45:04;;;;;;;17.67;7.03;;;5.50;99.90;;;;;;4974300;28;20182;-53
2024/01/27 10:47:31;;;;;;;14.43;6.25;;;5.50;99.90;;;;;;4974221;28;20209;-51
2024/01/27 10:49:58;;;;;;;14.90;6.43;;;5.50;99.90;;;;;;4974647;28;20200;-53
2024/01/27 10:52:28;;;;;;;16.17;6.55;;;5.40;99.90;;;;;;4974449;28;20535;-54
2024/01/27 10:54:59;;;;;;;16.75;6.70;;;5.40;99.90;;;;;;4974520;28;20213;-53
2024/01/27 10:57:26;;;;;;;13.90;6.90;;;5.40;99.90;;;;;;4974824;28;20174;-52
2024/01/27 10:59:53;;;;;;;12.07;7.10;;;5.40;99.90;;;;;;4973255;28;20220;-52
2024/01/27 11:02:20;;;;;;;16.50;7.80;;;5.50;99.90;;;;;;4974359;28;20233;-53
2024/01/27 11:04:48;;;;;;;20.73;7.78;;;5.60;99.90;;;;;;4973888;28;20221;-51
2024/01/27 11:07:14;;;;;;;22.48;8.65;;;5.80;99.90;;;;;;4974087;28;20266;-53
2024/01/27 11:09:40;;;;;;;19.67;7.82;;;5.90;99.90;;;;;;4974172;28;20252;-53
2024/01/27 11:12:07;;;;;;;19.23;7.50;;;6.10;99.90;;;;;;4974127;28;20177;-54
2024/01/27 11:14:33;;;;;;;18.67;7.43;;;6.20;99.90;;;;;;4973871;28;20267;-52
2024/01/27 11:16:59;;;;;;;18.27;6.85;;;6.30;99.90;;;;;;4973483;28;20196;-54
2024/01/27 11:19:26;;;;;;;17.40;6.88;;;6.40;99.90;;;;;;4935100;29;20257;-52
2024/01/27 11:22:02;;;;;;;21.45;7.82;;;6.60;99.90;;;;;;4934798;29;20702;-54
2024/01/27 11:24:28;;;;;;;16.38;6.80;;;6.80;99.90;;;;;;4935479;29;20185;-54
2024/01/27 11:27:07;;;;;;;16.30;5.90;;;6.80;99.90;;;;;;4935569;29;20210;-51
2024/01/27 11:29:34;;;;;;;17.48;6.72;;;7.00;99.90;;;;;;4935796;29;20182;-54
2024/01/27 11:32:04;;;;;;;14.38;6.55;;;7.00;99.90;;;;;;4935825;29;20597;-51
2024/01/27 11:34:43;;;;;;;20.25;6.22;;;7.00;99.90;;;;;;4935692;29;20171;-54
2024/01/27 11:37:15;;;;;;;15.75;6.47;;;7.10;99.90;;;;;;4936555;29;20278;-50
2024/01/27 11:39:41;;;;;;;14.98;6.10;;;7.30;99.90;;;;;;4939187;29;20175;-54
2024/01/27 11:42:13;;;;;;;23.55;6.68;;;7.40;99.90;;;;;;4939462;29;20715;-51
2024/01/27 11:44:40;;;;;;;21.20;6.57;;;7.40;99.90;;;;;;4939315;29;20179;-51
2024/01/27 11:47:18;;;;;;;15.57;6.22;;;7.40;99.90;;;;;;4938777;29;20736;-52
2024/01/27 11:49:51;;;;;;;13.80;5.68;;;7.30;99.90;;;;;;4939134;29;20274;-54
2024/01/27 11:52:17;;;;;;;12.80;5.47;;;7.30;99.90;;;;;;4939031;29;20227;-52
2024/01/27 11:54:43;;;;;;;18.70;6.00;;;7.20;99.90;;;;;;4939149;29;20218;-54
2024/01/27 11:57:09;;;;;;;11.02;5.57;;;7.10;99.90;;;;;;4939133;29;20211;-53
2024/01/27 11:59:35;;;;;;;15.80;5.32;;;7.10;99.90;;;;;;4921903;29;20592;-53
2024/01/27 12:02:04;;;;;;;15.88;5.18;;;7.10;99.90;;;;;;4952991;29;20253;-52
2024/01/27 12:04:30;;;;;;;15.63;5.07;;;7.20;99.90;;;;;;4957619;29;20579;-51
2024/01/27 12:06:56;;;;;;;16.83;5.20;;;7.30;99.90;;;;;;4957951;29;20218;-53
2024/01/27 12:09:22;;;;;;;16.77;5.35;;;7.30;99.90;;;;;;4957829;29;20175;-53
2024/01/27 12:11:48;;;;;;;14.88;4.68;;;7.40;99.90;;;;;;4957974;28;20236;-53
2024/01/27 12:14:14;;;;;;;11.65;5.13;;;7.50;99.90;;;;;;4957867;28;20587;-51
2024/01/27 12:16:40;;;;;;;14.50;5.15;;;7.60;99.90;;;;;;4957880;29;20178;-53
2024/01/27 12:19:05;;;;;;;13.27;5.15;;;7.60;99.90;;;;;;4957701;29;20179;-53
2024/01/27 12:21:31;;;;;;;15.05;5.53;;;7.70;99.90;;;;;;4957659;29;20657;-53
2024/01/27 12:23:58;;;;;;;12.75;5.43;;;7.70;99.90;;;;;;4957882;29;20189;-52
2024/01/27 12:26:29;;;;;;;14.07;5.47;;;7.80;99.90;;;;;;4957633;29;20187;-51
2024/01/27 12:28:56;;;;;;;14.57;5.20;;;7.80;99.90;;;;;;4976995;28;20217;-53
2024/01/27 12:31:24;;;;;;;12.88;5.25;;;7.80;99.90;;;;;;4996211;28;20188;-52
2024/01/27 12:33:55;;;;;;;14.75;5.40;;;7.90;99.90;;;;;;4996126;28;20180;-52
2024/01/27 12:36:21;;;;;;;16.85;5.60;;;7.90;99.90;;;;;;4996283;28;20177;-53
2024/01/27 12:39:05;;;;;;;16.08;5.68;;;7.90;99.90;;;;;;4996416;28;20646;-53
2024/01/27 12:41:33;;;;;;;13.63;5.30;;;8.00;99.90;;;;;;4996103;28;20177;-49
2024/01/27 12:43:59;;;;;;;13.05;5.55;;;8.00;99.90;;;;;;4995965;28;20181;-50